Create Tblcommutelog Verified Points Advance Search
| # | Trip ID | Id Commuter | Trip Date | Trip Num | Current Lat | Current Lng | Delta Distance | Current Time | Activity | Activity Confidence | Current Speed | |
|---|---|---|---|---|---|---|---|---|---|---|---|---|
| 69601 | 250904_783292_16651014_1605 | 783292 | (not set) | (not set) | 38.934034389648 | -76.890527618282 | 1.4546 | 2025-09-04 16:39:37 | in_vehicle | 100 | 4.9934285228929 | |
| 69602 | 250904_785447_16655759_1611 | 785447 | (not set) | (not set) | 39.09066973556 | -76.704219597009 | 22.35 | 2025-09-04 16:39:37 | in_vehicle | 100 | 6.2674904110079 | |
| 69603 | 250904_784692_16652683_1601 | 784692 | (not set) | (not set) | 38.876494993751 | -77.281385995602 | 17.3031 | 2025-09-04 16:39:37 | in_vehicle | 100 | -0.44703925898772 | |
| 69604 | 250904_787692_16656198_1605 | 787692 | (not set) | (not set) | 39.22342393614 | -77.259408008693 | 20.8832 | 2025-09-04 16:39:38 | in_vehicle | 100 | 6.9112269439502 | |
| 69605 | 250904_787692_16656198_1605 | 787692 | (not set) | (not set) | 39.22342393614 | -77.259408008693 | 20.8832 | 2025-09-04 16:39:38 | in_vehicle | 100 | 6.9112269439502 | |
| 69606 | 250904_784692_16652683_1601 | 784692 | (not set) | (not set) | 38.875869276302 | -77.282688077471 | 17.3031 | 2025-09-04 16:39:38 | in_vehicle | 100 | -0.44703925898772 | |
| 69607 | 250904_784692_16652683_1601 | 784692 | (not set) | (not set) | 38.875444111275 | -77.282064312957 | 17.3031 | 2025-09-04 16:39:39 | in_vehicle | 100 | -0.44703925898772 | |
| 69608 | 250904_786244_16654538_1636 | 786244 | (not set) | (not set) | 39.3671014 | -76.6483523 | 0.8779 | 2025-09-04 16:39:39 | in_vehicle | 100 | 1.3232362066037 | |
| 69609 | 250904_788610_16657277_1615 | 788610 | (not set) | (not set) | 38.981213458085 | -76.989247138409 | 3.6256 | 2025-09-04 16:39:39 | in_vehicle | 100 | 3.0711597092457 | |
| 69610 | 250904_788610_16657277_1615 | 788610 | (not set) | (not set) | 38.981213458085 | -76.989247138409 | 3.6256 | 2025-09-04 16:39:39 | in_vehicle | 100 | 3.0711597092457 | |
| 69611 | 250904_785674_16653838_1622 | 785674 | (not set) | (not set) | 39.086101852164 | -77.173432852419 | 7.8514 | 2025-09-04 16:39:40 | in_vehicle | 100 | 10.143320786431 | |
| 69612 | 250904_788077_16656633_1601 | 788077 | (not set) | (not set) | 38.875364440224 | -77.281946701545 | 21.5969 | 2025-09-04 16:39:40 | unknown | 100 | 12.302520407342 | |
| 69613 | 250904_738572_16603589_1626 | 738572 | (not set) | (not set) | 38.902494635426 | -77.003185627593 | 1.3015 | 2025-09-04 16:39:41 | in_vehicle | 100 | 2.8342289019822 | |
| 69614 | 250904_787735_16656247_1600 | 787735 | (not set) | (not set) | 39.152850093999 | -77.295463584376 | 20.1197 | 2025-09-04 16:39:41 | in_vehicle | 100 | 6.8307598773324 | |
| 69615 | 250904_113832_1027663_1556 | 113832 | (not set) | (not set) | 39.085695945719 | -77.147743553532 | 14.4072 | 2025-09-04 16:39:43 | in_vehicle | 100 | 6.701118492226 | |
| 69616 | 250904_786132_16654406_1552 | 786132 | (not set) | (not set) | 38.87506818331 | -77.282912328658 | 26.458 | 2025-09-04 16:39:43 | in_vehicle | 100 | 12.767441236689 | |
| 69617 | 250904_786113_16654392_1601 | 786113 | (not set) | (not set) | 38.87508583937 | -77.282878502248 | 18.945 | 2025-09-04 16:39:43 | in_vehicle | 100 | 12.798733984819 | |
| 69618 | 250904_784108_16652594_1628 | 784108 | (not set) | (not set) | 39.073413396697 | -77.163898755076 | 4.874 | 2025-09-04 16:39:45 | in_vehicle | 100 | 10.684238289807 | |
| 69619 | 250904_784108_16652594_1628 | 784108 | (not set) | (not set) | 39.073413396697 | -77.163898755076 | 4.874 | 2025-09-04 16:39:45 | in_vehicle | 100 | 10.684238289807 | |
| 69620 | 250904_780743_16648420_1621 | 780743 | (not set) | (not set) | 38.893988910052 | -77.052790806586 | 1.0752 | 2025-09-04 16:39:46 | in_vehicle | 100 | 4.4927445528266 |